Time;durP1;ratioP1;P1;durP2;ratioP2;P2;SDS_P1;SDS_P2;PMS_P1;PMS_P2;Temp;Humidity;BMP_temperature;BMP_pressure;BME280_temperature;BME280_humidity;BME280_pressure;Samples;Min_cycle;Max_cycle;Signal;HPM_P1;HPM_P2
2022/01/25 00:09:34;;;;;;;13.13;10.63;;;-2.00;72.50;;;;;;5094571;28;20122;-59
2022/01/25 00:31:17;;;;;;;16.15;12.05;;;-1.90;71.80;;;;;;5092162;28;20473;-58
2022/01/25 00:33:52;;;;;;;12.63;7.75;;;-1.90;72.10;;;;;;5093554;28;20039;-60
2022/01/25 00:36:20;;;;;;;13.15;10.43;;;-1.90;72.00;;;;;;5089524;28;20043;-59
2022/01/25 00:38:47;;;;;;;14.75;7.43;;;-1.90;72.00;;;;;;5083876;28;20033;-59
2022/01/25 00:41:14;;;;;;;13.35;7.28;;;-1.90;71.80;;;;;;5093009;28;20043;-59
2022/01/25 00:43:40;;;;;;;15.38;12.00;;;-2.00;72.00;;;;;;5093072;28;20070;-59
2022/01/25 00:46:09;;;;;;;15.20;12.25;;;-1.90;72.30;;;;;;5092979;28;20052;-59
2022/01/25 00:51:22;;;;;;;14.65;7.35;;;-1.80;71.70;;;;;;5088249;28;20015;-59
2022/01/25 00:54:34;;;;;;;14.52;11.65;;;-1.90;71.60;;;;;;5090243;28;20028;-59
2022/01/25 00:56:48;;;;;;;15.73;8.00;;;-1.90;71.80;;;;;;5076198;28;20393;-59
2022/01/25 00:59:28;;;;;;;13.50;10.48;;;-1.90;71.80;;;;;;5090014;28;20051;-59
2022/01/25 01:02:00;;;;;;;12.65;7.40;;;-1.80;72.00;;;;;;5092894;28;20050;-60
2022/01/25 01:04:26;;;;;;;14.98;8.15;;;-1.90;71.80;;;;;;5092785;28;20367;-59
2022/01/25 01:06:52;;;;;;;12.88;10.55;;;-1.90;72.00;;;;;;5085540;28;20017;-59
2022/01/25 01:09:21;;;;;;;14.13;7.07;;;-1.90;72.00;;;;;;5093171;28;20020;-60
2022/01/25 01:48:09;;;;;;;12.57;7.25;;;-1.90;71.30;;;;;;5091160;28;20115;-60
2022/01/25 01:50:37;;;;;;;12.80;11.02;;;-1.90;71.30;;;;;;5092441;28;20059;-58
2022/01/25 01:53:05;;;;;;;13.45;7.18;;;-1.90;71.50;;;;;;5069750;28;20032;-59
2022/01/25 01:55:32;;;;;;;14.05;10.98;;;-1.90;71.30;;;;;;5087199;28;20388;-59
2022/01/25 01:57:58;;;;;;;12.43;10.23;;;-1.90;71.40;;;;;;5091027;28;20059;-57
2022/01/25 02:00:30;;;;;;;15.35;11.70;;;-1.90;71.10;;;;;;5092261;28;20439;-59
2022/01/25 02:02:57;;;;;;;11.98;7.03;;;-1.80;70.90;;;;;;5088286;28;20028;-58
2022/01/25 02:05:23;;;;;;;12.02;7.18;;;-1.90;71.10;;;;;;5090921;28;20027;-60
2022/01/25 02:07:48;;;;;;;14.32;10.77;;;-1.90;71.50;;;;;;5088720;28;20439;-60
2022/01/25 02:10:14;;;;;;;15.40;11.73;;;-1.90;71.70;;;;;;5094946;28;20542;-58
2022/01/25 02:12:41;;;;;;;13.55;7.50;;;-1.90;71.50;;;;;;5091149;28;20469;-59
2022/01/25 02:15:07;;;;;;;14.18;10.63;;;-1.90;71.30;;;;;;5092729;28;20055;-59
2022/01/25 02:17:54;;;;;;;16.08;7.85;;;-1.90;71.50;;;;;;5095812;28;20578;-58
2022/01/25 02:23:21;;;;;;;12.90;10.40;;;-2.00;71.80;;;;;;5095804;28;20167;-59
2022/01/25 02:25:50;;;;;;;13.63;8.18;;;-2.00;71.80;;;;;;5096043;28;20024;-59
2022/01/25 02:28:18;;;;;;;15.02;8.38;;;-2.00;71.70;;;;;;5088120;28;20021;-60
2022/01/25 02:30:44;;;;;;;13.05;7.15;;;-2.10;71.80;;;;;;5094971;28;20432;-60
2022/01/25 02:33:10;;;;;;;13.07;7.03;;;-2.10;72.00;;;;;;5089110;28;20034;-59
2022/01/25 02:35:36;;;;;;;11.20;6.95;;;-2.20;72.10;;;;;;5095645;28;20433;-60
2022/01/25 02:38:03;;;;;;;13.18;10.63;;;-2.20;72.30;;;;;;5089536;28;20036;-59
2022/01/25 02:40:28;;;;;;;12.77;7.13;;;-2.10;72.40;;;;;;5089458;28;20024;-58
2022/01/25 02:42:54;;;;;;;13.95;7.25;;;-2.10;72.10;;;;;;5095963;28;20075;-60
2022/01/25 02:45:21;;;;;;;14.07;11.15;;;-2.10;72.20;;;;;;5095837;28;20052;-59
2022/01/25 02:50:32;;;;;;;13.57;9.85;;;-2.10;71.90;;;;;;5090644;28;20019;-59
2022/01/25 02:52:58;;;;;;;12.40;7.18;;;-2.00;72.20;;;;;;5088160;28;20395;-60
2022/01/25 02:55:23;;;;;;;13.82;9.98;;;-2.00;71.90;;;;;;5089025;28;20025;-59
2022/01/25 02:57:49;;;;;;;12.65;6.85;;;-2.00;72.00;;;;;;5091680;28;20379;-59
2022/01/25 03:00:17;;;;;;;12.40;10.48;;;-2.00;71.60;;;;;;5087818;28;20070;-60
2022/01/25 03:02:43;;;;;;;13.98;11.05;;;-2.00;71.80;;;;;;5087064;28;20491;-60
2022/01/25 03:05:09;;;;;;;15.18;8.77;;;-1.90;71.40;;;;;;5091301;28;20111;-60
2022/01/25 03:07:37;;;;;;;11.02;7.22;;;-2.00;71.20;;;;;;5092453;28;20495;-58
2022/01/25 03:10:05;;;;;;;13.40;6.65;;;-2.00;71.50;;;;;;5091412;28;20101;-59
2022/01/25 03:12:39;;;;;;;11.85;9.45;;;-2.10;71.70;;;;;;5093140;28;20081;-57
2022/01/25 03:17:54;;;;;;;11.95;6.68;;;-1.90;71.70;;;;;;5095369;28;20530;-59
2022/01/25 03:20:35;;;;;;;13.95;10.77;;;-2.00;71.50;;;;;;5079689;28;20483;-59
2022/01/25 03:23:06;;;;;;;11.00;7.15;;;-2.00;71.50;;;;;;5095319;28;20028;-60
2022/01/25 03:25:32;;;;;;;15.05;11.75;;;-2.00;71.50;;;;;;5084371;28;20039;-59
2022/01/25 03:27:58;;;;;;;12.25;7.00;;;-2.00;71.60;;;;;;5081509;28;20044;-60
2022/01/25 03:30:25;;;;;;;12.30;10.25;;;-2.10;71.40;;;;;;5083783;28;20069;-60
2022/01/25 03:32:52;;;;;;;13.98;7.45;;;-2.00;71.70;;;;;;5080464;28;20032;-59
2022/01/25 03:35:18;;;;;;;12.60;7.15;;;-2.00;71.50;;;;;;5094435;28;20024;-58
2022/01/25 03:37:43;;;;;;;8.75;5.63;;;-2.10;71.60;;;;;;5080748;28;20028;-60
2022/01/25 03:40:10;;;;;;;11.60;9.32;;;-2.10;72.00;;;;;;5094895;28;20035;-58
2022/01/25 03:42:37;;;;;;;10.80;8.30;;;-2.10;71.90;;;;;;5094694;28;20036;-59
2022/01/25 03:45:05;;;;;;;12.07;7.03;;;-2.00;71.50;;;;;;5094649;28;20028;-58
2022/01/25 03:47:44;;;;;;;11.23;6.65;;;-2.10;71.30;;;;;;5085564;28;20039;-59
2022/01/25 03:50:10;;;;;;;12.85;9.50;;;-2.20;71.60;;;;;;5085636;28;20432;-58
2022/01/25 03:52:37;;;;;;;12.40;10.15;;;-2.10;71.80;;;;;;5089366;28;20120;-59
2022/01/25 03:55:05;;;;;;;10.20;6.85;;;-2.00;71.60;;;;;;5074864;28;20420;-60
2022/01/25 03:57:30;;;;;;;11.70;9.50;;;-2.10;71.40;;;;;;5091259;28;20103;-59
2022/01/25 03:59:59;;;;;;;11.93;9.70;;;-2.10;71.60;;;;;;5084948;28;20452;-59
2022/01/25 04:02:27;;;;;;;14.73;6.72;;;-2.00;71.50;;;;;;5090822;28;20024;-59
2022/01/25 04:04:53;;;;;;;10.23;8.63;;;-2.10;71.30;;;;;;5084025;28;20038;-58
2022/01/25 04:07:27;;;;;;;10.68;9.57;;;-2.10;71.60;;;;;;5089550;28;20376;-58
2022/01/25 04:09:53;;;;;;;10.27;6.82;;;-2.10;71.50;;;;;;5088490;28;20039;-59
2022/01/25 04:12:19;;;;;;;12.32;9.05;;;-2.10;71.40;;;;;;5083624;28;20496;-59
2022/01/25 04:14:45;;;;;;;11.68;7.28;;;-2.10;71.50;;;;;;5093863;28;20046;-60
2022/01/25 04:17:14;;;;;;;10.18;6.68;;;-2.10;71.50;;;;;;5093483;28;20126;-58
2022/01/25 04:19:46;;;;;;;11.40;9.60;;;-2.20;71.90;;;;;;5076965;28;20119;-57
2022/01/25 04:27:06;;;;;;;10.05;7.85;;;-2.20;72.00;;;;;;5087262;28;20464;-59
2022/01/25 04:29:32;;;;;;;8.75;6.07;;;-2.20;71.80;;;;;;5085064;28;20020;-59
2022/01/25 04:31:58;;;;;;;8.80;5.88;;;-2.20;71.60;;;;;;5093373;28;20108;-58
2022/01/25 04:53:19;;;;;;;8.68;5.55;;;-2.20;71.90;;;;;;5074884;28;20024;-59
2022/01/25 04:56:33;;;;;;;9.02;7.57;;;-2.20;71.60;;;;;;5091940;28;20024;-60
2022/01/25 04:59:22;;;;;;;9.43;8.20;;;-2.20;71.80;;;;;;5084686;28;20040;-59
2022/01/25 05:01:22;;;;;;;9.15;5.18;;;-2.10;71.60;;;;;;5087562;28;20040;-59
2022/01/25 05:04:26;;;;;;;8.15;7.20;;;-2.20;71.40;;;;;;5093195;28;20387;-60
2022/01/25 05:06:43;;;;;;;7.93;5.28;;;-2.20;71.60;;;;;;5091036;28;20036;-59
2022/01/25 05:09:09;;;;;;;7.90;7.07;;;-2.20;71.30;;;;;;5091657;28;20016;-58
2022/01/25 05:11:39;;;;;;;9.43;7.68;;;-2.20;71.60;;;;;;5076723;28;20100;-59
2022/01/25 05:16:35;;;;;;;8.80;7.38;;;-2.20;71.30;;;;;;5093343;28;20032;-59
2022/01/25 05:24:37;;;;;;;9.00;7.10;;;-2.30;71.50;;;;;;5093005;28;20035;-58
2022/01/25 05:27:07;;;;;;;9.73;7.53;;;-2.20;71.70;;;;;;5084971;28;20424;-59
2022/01/25 05:29:33;;;;;;;7.82;5.30;;;-2.20;71.40;;;;;;5077828;28;20063;-58
2022/01/25 05:31:59;;;;;;;11.13;5.60;;;-2.20;71.60;;;;;;5078997;28;20860;-59
2022/01/25 05:34:25;;;;;;;8.88;6.90;;;-2.30;71.70;;;;;;5078787;28;20036;-60
2022/01/25 05:36:52;;;;;;;8.77;7.72;;;-2.20;72.10;;;;;;5092943;28;20087;-58
2022/01/25 05:39:23;;;;;;;10.82;6.57;;;-2.10;71.70;;;;;;5095539;28;20365;-59
2022/01/25 05:41:56;;;;;;;9.07;5.45;;;-2.20;71.50;;;;;;5096910;28;20059;-60
2022/01/25 05:44:37;;;;;;;9.25;7.60;;;-2.20;71.70;;;;;;5079277;28;20032;-59
2022/01/25 05:47:06;;;;;;;8.95;4.80;;;-2.20;71.70;;;;;;5076969;28;20075;-60
2022/01/25 05:49:37;;;;;;;8.70;7.57;;;-2.20;71.50;;;;;;5094471;28;20103;-59
2022/01/25 05:52:04;;;;;;;9.05;7.75;;;-2.20;71.60;;;;;;5089230;28;20110;-58
2022/01/25 05:54:30;;;;;;;9.38;7.72;;;-2.20;71.30;;;;;;5087674;28;20107;-60
2022/01/25 05:56:55;;;;;;;10.40;8.15;;;-2.10;71.20;;;;;;5096595;28;20107;-60
2022/01/25 05:59:21;;;;;;;6.78;5.40;;;-2.10;71.00;;;;;;5091912;28;20025;-59
2022/01/25 06:01:48;;;;;;;9.65;8.00;;;-2.20;70.90;;;;;;5085277;28;20020;-63
2022/01/25 06:04:14;;;;;;;9.90;8.45;;;-2.20;71.10;;;;;;5083843;28;20028;-63
2022/01/25 06:06:40;;;;;;;9.60;5.78;;;-2.20;70.90;;;;;;5083763;28;20021;-63
2022/01/25 06:09:05;;;;;;;7.35;5.38;;;-2.20;70.70;;;;;;5088199;28;20531;-63
2022/01/25 06:11:32;;;;;;;10.02;7.95;;;-2.30;70.90;;;;;;5074579;28;20077;-63
2022/01/25 06:13:58;;;;;;;12.15;6.13;;;-2.30;71.10;;;;;;5060257;28;20136;-62
2022/01/25 06:16:24;;;;;;;10.48;8.00;;;-2.40;70.90;;;;;;5095633;28;20055;-63
2022/01/25 06:18:50;;;;;;;9.35;5.65;;;-2.50;71.10;;;;;;5092371;28;20375;-63
2022/01/25 06:21:15;;;;;;;9.50;7.88;;;-2.60;71.00;;;;;;5075961;28;20088;-59
2022/01/25 06:23:41;;;;;;;9.77;8.48;;;-2.60;71.30;;;;;;5083624;28;20020;-59
2022/01/25 06:26:07;;;;;;;8.80;5.85;;;-2.60;71.30;;;;;;5087810;28;20069;-59
2022/01/25 06:28:32;;;;;;;13.10;9.40;;;-2.70;71.20;;;;;;5088182;28;20029;-58
2022/01/25 06:30:58;;;;;;;10.05;8.80;;;-2.70;71.40;;;;;;5086077;28;20028;-60
2022/01/25 06:33:24;;;;;;;12.40;6.53;;;-2.70;71.20;;;;;;5075796;28;20388;-60
2022/01/25 06:35:49;;;;;;;10.35;8.65;;;-2.70;71.20;;;;;;5071856;28;20456;-58
2022/01/25 06:38:15;;;;;;;9.50;5.93;;;-2.70;71.60;;;;;;5077331;28;20041;-60
2022/01/25 06:40:41;;;;;;;10.63;8.80;;;-2.70;71.50;;;;;;5078063;28;20055;-59
2022/01/25 06:43:07;;;;;;;11.23;8.82;;;-2.70;71.60;;;;;;5077142;28;20032;-58
2022/01/25 06:45:33;;;;;;;11.43;6.22;;;-2.70;71.40;;;;;;5076364;28;20031;-59
2022/01/25 06:47:59;;;;;;;12.05;8.98;;;-2.70;71.40;;;;;;5082297;28;20028;-59
2022/01/25 06:50:26;;;;;;;9.40;5.95;;;-2.70;71.70;;;;;;5076813;28;20028;-59
2022/01/25 06:52:52;;;;;;;11.07;9.35;;;-2.70;71.70;;;;;;5077269;28;20092;-59
2022/01/25 06:55:19;;;;;;;10.00;5.72;;;-2.60;72.10;;;;;;5077965;28;20032;-58
2022/01/25 06:57:46;;;;;;;11.10;8.88;;;-2.60;71.80;;;;;;5076649;28;20052;-60
2022/01/25 07:00:16;;;;;;;12.75;7.35;;;-2.60;72.50;;;;;;5076808;28;20106;-59
2022/01/25 07:02:42;;;;;;;10.57;5.68;;;-2.60;71.60;;;;;;5079440;28;20123;-59
2022/01/25 07:05:08;;;;;;;9.93;5.80;;;-2.60;71.80;;;;;;5075209;28;20024;-59
2022/01/25 07:07:35;;;;;;;11.48;5.88;;;-2.60;72.00;;;;;;5075756;28;20120;-57
2022/01/25 07:10:01;;;;;;;11.18;8.95;;;-2.60;72.20;;;;;;5077715;28;20036;-58
2022/01/25 07:12:27;;;;;;;9.15;5.78;;;-2.50;72.30;;;;;;5073447;28;20090;-59
2022/01/25 07:14:52;;;;;;;10.68;5.53;;;-2.50;72.00;;;;;;5074213;28;20059;-58
2022/01/25 07:17:18;;;;;;;11.50;8.65;;;-2.50;72.10;;;;;;5072862;28;20460;-58
2022/01/25 07:19:44;;;;;;;10.32;8.02;;;-2.30;72.00;;;;;;5078702;28;20383;-59
2022/01/25 07:22:10;;;;;;;9.43;6.40;;;-2.20;71.60;;;;;;5073998;28;20057;-58
2022/01/25 07:24:35;;;;;;;9.95;8.50;;;-2.20;71.30;;;;;;5073996;28;20066;-58
2022/01/25 07:27:01;;;;;;;8.57;5.47;;;-2.20;71.30;;;;;;5074423;28;20481;-60
2022/01/25 07:29:27;;;;;;;11.93;8.52;;;-2.20;71.10;;;;;;5077342;28;20035;-58
2022/01/25 07:31:55;;;;;;;8.40;5.55;;;-2.20;70.90;;;;;;5068322;28;20028;-60
2022/01/25 07:34:21;;;;;;;10.50;7.68;;;-2.20;70.80;;;;;;5069285;28;20036;-60
2022/01/25 07:36:46;;;;;;;8.77;5.97;;;-2.10;71.00;;;;;;5077690;28;20028;-59
2022/01/25 07:39:12;;;;;;;13.32;6.20;;;-2.10;70.80;;;;;;5078210;28;20040;-58
2022/01/25 07:41:38;;;;;;;11.93;8.73;;;-2.10;71.00;;;;;;5076694;28;20408;-57
2022/01/25 07:44:05;;;;;;;9.15;5.85;;;-2.00;71.00;;;;;;5076283;28;20138;-59
2022/01/25 07:46:31;;;;;;;9.40;6.00;;;-2.10;70.60;;;;;;5074720;28;20484;-58
2022/01/25 07:48:58;;;;;;;9.55;5.70;;;-2.10;70.80;;;;;;5072098;28;20032;-58
2022/01/25 07:51:26;;;;;;;9.18;5.38;;;-2.00;71.00;;;;;;5070542;28;20381;-59
2022/01/25 07:53:52;;;;;;;8.68;5.40;;;-2.10;71.10;;;;;;5080680;28;20038;-58
2022/01/25 07:56:18;;;;;;;10.82;8.65;;;-2.00;71.20;;;;;;5076075;28;20074;-60
2022/01/25 07:58:44;;;;;;;8.77;5.57;;;-1.90;71.10;;;;;;5068059;28;20039;-59
2022/01/25 08:01:09;;;;;;;9.05;5.13;;;-1.80;70.70;;;;;;5071491;28;20023;-59
2022/01/25 08:03:35;;;;;;;8.63;4.97;;;-1.90;70.60;;;;;;5064456;28;20733;-60
2022/01/25 08:06:01;;;;;;;9.80;7.47;;;-1.80;70.80;;;;;;5074686;28;20024;-60
2022/01/25 08:08:26;;;;;;;9.45;6.38;;;-1.70;70.50;;;;;;5062335;28;20115;-59
2022/01/25 08:10:52;;;;;;;8.00;5.75;;;-1.70;70.00;;;;;;5066329;28;20090;-59
2022/01/25 08:13:18;;;;;;;10.57;5.60;;;-1.70;70.10;;;;;;5069051;28;20042;-60
2022/01/25 08:15:43;;;;;;;8.95;5.22;;;-1.70;70.00;;;;;;5068465;28;20032;-59
2022/01/25 08:18:09;;;;;;;8.70;4.72;;;-1.70;70.00;;;;;;5063069;28;20020;-59
2022/01/25 08:20:35;;;;;;;7.50;5.13;;;-1.70;70.00;;;;;;5060729;28;20076;-58
2022/01/25 08:23:00;;;;;;;8.90;5.35;;;-1.70;70.00;;;;;;5065851;28;20121;-58
2022/01/25 08:25:26;;;;;;;9.68;4.85;;;-1.70;70.10;;;;;;5068636;28;20052;-57
2022/01/25 08:27:52;;;;;;;6.45;4.60;;;-1.70;70.20;;;;;;5064416;28;20040;-59
2022/01/25 08:30:19;;;;;;;8.32;5.18;;;-1.60;70.20;;;;;;5068738;28;20039;-57
2022/01/25 08:32:44;;;;;;;10.93;8.40;;;-1.60;70.10;;;;;;5065850;28;20043;-58
2022/01/25 08:35:11;;;;;;;9.18;5.38;;;-1.50;69.60;;;;;;5065555;28;20035;-58
2022/01/25 08:37:36;;;;;;;8.38;4.90;;;-1.50;69.10;;;;;;5062430;28;20098;-58
2022/01/25 08:40:04;;;;;;;7.72;4.43;;;-1.50;69.20;;;;;;5069123;28;20032;-59
2022/01/25 08:42:30;;;;;;;10.10;7.43;;;-1.50;69.40;;;;;;5069827;28;20460;-59
2022/01/25 08:44:56;;;;;;;9.80;8.30;;;-1.40;69.00;;;;;;5073869;28;20035;-60
2022/01/25 08:47:22;;;;;;;11.20;8.82;;;-1.30;68.50;;;;;;5078023;28;20039;-59
2022/01/25 08:49:47;;;;;;;8.50;5.00;;;-1.20;68.30;;;;;;5066928;28;20024;-58
2022/01/25 08:52:13;;;;;;;8.98;4.97;;;-1.30;68.00;;;;;;5062393;28;20507;-56
2022/01/25 08:54:39;;;;;;;8.73;7.82;;;-1.30;68.50;;;;;;5066838;28;20044;-58
2022/01/25 08:57:05;;;;;;;8.35;5.30;;;-1.20;68.40;;;;;;5069037;28;20031;-59
2022/01/25 08:59:31;;;;;;;9.52;7.65;;;-1.20;68.20;;;;;;5065047;28;20021;-58
2022/01/25 09:01:57;;;;;;;8.73;5.93;;;-1.20;68.10;;;;;;5063583;28;20620;-57
2022/01/25 09:04:22;;;;;;;11.23;8.35;;;-1.10;67.90;;;;;;5064229;28;20035;-61
2022/01/25 09:06:48;;;;;;;8.35;5.20;;;-1.10;67.90;;;;;;5062329;28;20170;-59
2022/01/25 09:09:14;;;;;;;7.00;4.80;;;-1.10;67.70;;;;;;5062540;28;20034;-57
2022/01/25 09:11:41;;;;;;;8.57;5.07;;;-1.10;67.90;;;;;;5069418;28;20038;-59
2022/01/25 09:14:08;;;;;;;10.13;8.45;;;-1.10;68.00;;;;;;5064462;28;20119;-57
2022/01/25 09:16:34;;;;;;;9.55;5.55;;;-0.90;68.00;;;;;;5064621;28;20676;-57
2022/01/25 09:19:00;;;;;;;8.27;4.78;;;-0.90;67.90;;;;;;5062737;28;20032;-60
2022/01/25 09:21:27;;;;;;;9.02;7.50;;;-0.90;68.00;;;;;;5058527;28;20415;-59
2022/01/25 09:23:54;;;;;;;8.93;5.50;;;-0.80;67.70;;;;;;5064530;28;20041;-59
2022/01/25 09:26:21;;;;;;;8.02;5.50;;;-0.80;67.30;;;;;;5063876;28;20115;-59
2022/01/25 09:28:47;;;;;;;6.70;4.28;;;-0.80;67.50;;;;;;5068033;28;20035;-57
2022/01/25 09:31:13;;;;;;;6.75;4.45;;;-0.80;67.70;;;;;;5065070;28;20024;-59
2022/01/25 09:33:38;;;;;;;6.97;4.30;;;-0.80;67.80;;;;;;5065623;28;20484;-59
2022/01/25 09:36:05;;;;;;;7.30;4.93;;;-0.70;68.00;;;;;;5063441;28;20044;-59
2022/01/25 09:38:32;;;;;;;8.30;4.78;;;-0.70;67.90;;;;;;5063892;28;20032;-60
2022/01/25 09:40:58;;;;;;;9.65;7.03;;;-0.70;67.90;;;;;;5065396;28;20024;-58
2022/01/25 09:43:24;;;;;;;8.60;5.05;;;-0.50;67.60;;;;;;5062887;28;20123;-60
2022/01/25 09:45:50;;;;;;;9.55;5.18;;;-0.50;67.10;;;;;;5066903;28;20032;-60
2022/01/25 09:48:17;;;;;;;8.25;5.07;;;-0.50;67.30;;;;;;5061947;28;20034;-57
2022/01/25 09:50:42;;;;;;;6.43;4.53;;;-0.40;67.40;;;;;;5061035;28;20033;-60
2022/01/25 09:53:08;;;;;;;6.50;4.07;;;-0.40;67.40;;;;;;5060743;28;20086;-60
2022/01/25 09:55:39;;;;;;;9.60;7.50;;;-0.30;67.60;;;;;;5063184;28;20569;-60
2022/01/25 09:58:05;;;;;;;8.73;5.17;;;-0.20;67.10;;;;;;5060913;28;20086;-59
2022/01/25 10:00:33;;;;;;;6.38;4.63;;;-0.20;66.70;;;;;;5055770;28;20340;-59
2022/01/25 10:05:44;;;;;;;9.02;7.15;;;-0.10;66.90;;;;;;5066065;28;20056;-58
2022/01/25 10:08:12;;;;;;;7.97;4.82;;;0.00;66.60;;;;;;5055135;28;20111;-60
2022/01/25 10:10:44;;;;;;;9.68;5.15;;;0.00;66.40;;;;;;5059543;28;20028;-58
2022/01/25 10:13:22;;;;;;;10.10;8.02;;;0.00;66.40;;;;;;5056997;28;20645;-57
2022/01/25 10:15:50;;;;;;;7.78;4.65;;;0.10;65.90;;;;;;5066088;28;20677;-58
2022/01/25 10:18:16;;;;;;;10.65;7.80;;;0.10;65.80;;;;;;5061747;28;20122;-57
2022/01/25 10:20:48;;;;;;;8.55;4.82;;;0.20;65.60;;;;;;5060607;28;20043;-59
2022/01/25 10:23:22;;;;;;;8.75;5.50;;;0.20;65.60;;;;;;5060149;28;20050;-60
2022/01/25 10:25:49;;;;;;;7.88;4.95;;;0.20;65.90;;;;;;5073871;28;20036;-60
2022/01/25 10:28:21;;;;;;;8.88;4.85;;;0.20;65.90;;;;;;5073266;28;20051;-60
2022/01/25 10:31:02;;;;;;;7.38;4.63;;;0.20;66.00;;;;;;5067997;28;20090;-55
2022/01/25 10:33:32;;;;;;;7.80;4.22;;;0.20;66.00;;;;;;5067233;28;20043;-58
2022/01/25 10:36:10;;;;;;;8.50;4.50;;;0.20;66.10;;;;;;5066926;28;20071;-58
2022/01/25 10:38:36;;;;;;;7.38;5.03;;;0.20;66.20;;;;;;5054664;28;20361;-56
2022/01/25 10:41:09;;;;;;;9.40;5.07;;;0.20;66.30;;;;;;5072396;28;20035;-59
2022/01/25 10:43:37;;;;;;;8.25;5.10;;;0.20;66.20;;;;;;5069570;28;20020;-59
2022/01/25 10:46:12;;;;;;;8.88;5.20;;;0.20;66.20;;;;;;5071547;28;20020;-58
2022/01/25 10:48:41;;;;;;;7.50;4.90;;;0.20;66.10;;;;;;5069471;28;20098;-57
2022/01/25 10:51:09;;;;;;;8.85;5.30;;;0.20;66.20;;;;;;5063033;28;20107;-58
2022/01/25 10:53:35;;;;;;;10.43;5.15;;;0.20;66.00;;;;;;5068738;28;20471;-59
2022/01/25 10:56:02;;;;;;;11.02;8.77;;;0.10;66.00;;;;;;5071269;28;20054;-57
2022/01/25 10:58:28;;;;;;;10.27;8.48;;;0.30;65.90;;;;;;5066194;28;20168;-57
2022/01/25 11:00:55;;;;;;;8.70;5.47;;;0.30;65.30;;;;;;5070108;28;20079;-56
2022/01/25 11:03:32;;;;;;;7.60;5.30;;;0.30;65.10;;;;;;5070661;28;20032;-58
2022/01/25 11:06:12;;;;;;;8.63;7.50;;;0.20;65.20;;;;;;5069755;28;20564;-58
2022/01/25 11:08:38;;;;;;;8.10;4.70;;;0.30;65.10;;;;;;5058832;28;20028;-57
2022/01/25 11:11:09;;;;;;;7.70;4.97;;;0.20;65.00;;;;;;5067995;28;20038;-58
2022/01/25 11:13:37;;;;;;;8.35;5.05;;;0.20;65.10;;;;;;5069550;28;20040;-58
2022/01/25 11:16:09;;;;;;;6.13;4.30;;;0.10;65.30;;;;;;5072469;28;20059;-58
2022/01/25 11:18:36;;;;;;;6.63;4.18;;;0.10;65.40;;;;;;5066926;28;20039;-59
2022/01/25 11:21:05;;;;;;;8.70;7.43;;;0.10;65.50;;;;;;5075777;28;20047;-58
2022/01/25 11:23:33;;;;;;;7.45;5.05;;;0.20;65.20;;;;;;5070290;28;20060;-58
2022/01/25 11:26:02;;;;;;;8.23;5.28;;;0.20;65.00;;;;;;5061439;28;20028;-57
2022/01/25 11:28:31;;;;;;;8.45;5.43;;;0.10;65.00;;;;;;5068848;28;20783;-57
2022/01/25 11:31:05;;;;;;;6.63;4.15;;;0.10;65.00;;;;;;5068856;28;20021;-58
2022/01/25 11:33:33;;;;;;;6.35;4.32;;;0.10;65.10;;;;;;5066113;28;20043;-58
2022/01/25 11:35:59;;;;;;;9.10;6.90;;;0.10;65.20;;;;;;5073584;28;20181;-58
2022/01/25 11:38:41;;;;;;;7.85;5.45;;;0.10;64.90;;;;;;5073947;28;20063;-57
2022/01/25 11:41:18;;;;;;;5.95;4.03;;;0.10;64.60;;;;;;5073597;28;20043;-58
2022/01/25 11:44:04;;;;;;;9.48;7.35;;;0.10;64.80;;;;;;5070666;28;20043;-58
2022/01/25 11:46:30;;;;;;;7.15;4.80;;;0.10;64.60;;;;;;5067076;28;20124;-57
2022/01/25 11:49:14;;;;;;;7.05;4.13;;;0.10;64.50;;;;;;5063907;28;20028;-58
2022/01/25 11:51:40;;;;;;;7.03;4.43;;;0.00;64.70;;;;;;5064243;28;20032;-57
2022/01/25 11:54:08;;;;;;;6.90;4.75;;;0.00;65.10;;;;;;5075017;28;20038;-58
2022/01/25 11:56:36;;;;;;;8.55;7.18;;;0.00;65.10;;;;;;5075932;28;20039;-58
2022/01/25 11:59:02;;;;;;;9.00;5.32;;;0.10;64.80;;;;;;5072742;28;20032;-58
2022/01/25 12:01:28;;;;;;;6.57;4.28;;;0.00;64.60;;;;;;5070499;28;20023;-58
2022/01/25 12:04:00;;;;;;;7.25;4.43;;;0.00;64.80;;;;;;5073398;28;20032;-58
2022/01/25 12:06:34;;;;;;;5.93;4.38;;;0.00;64.90;;;;;;5071586;28;20106;-58
2022/01/25 12:11:44;;;;;;;5.82;4.25;;;-0.10;65.10;;;;;;5073024;28;20025;-55
2022/01/25 12:14:18;;;;;;;6.47;4.40;;;-0.10;65.20;;;;;;5071990;28;20040;-55
2022/01/25 12:17:15;;;;;;;6.72;4.28;;;-0.10;65.40;;;;;;5065426;28;20449;-57
2022/01/25 12:19:52;;;;;;;7.40;4.78;;;-0.10;65.50;;;;;;5060435;28;20098;-55
2022/01/25 12:25:19;;;;;;;6.38;4.45;;;-0.10;65.60;;;;;;5059514;28;20051;-58
2022/01/25 12:28:03;;;;;;;8.13;4.78;;;-0.10;65.40;;;;;;5065649;28;20375;-54
2022/01/25 12:30:41;;;;;;;6.85;4.45;;;-0.20;65.40;;;;;;5068911;28;20020;-58
2022/01/25 12:33:25;;;;;;;7.70;5.32;;;-0.20;65.40;;;;;;5065213;28;20541;-58
2022/01/25 12:36:03;;;;;;;6.47;5.07;;;-0.20;65.50;;;;;;5077025;28;20031;-57
2022/01/25 12:38:49;;;;;;;7.32;4.10;;;-0.20;65.60;;;;;;5072207;28;20032;-57
2022/01/25 12:41:23;;;;;;;6.75;4.45;;;-0.20;65.60;;;;;;5065511;28;20087;-57
2022/01/25 12:43:53;;;;;;;9.40;7.85;;;-0.20;65.50;;;;;;5069631;28;20032;-59
2022/01/25 12:46:34;;;;;;;9.40;5.38;;;0.00;65.20;;;;;;5063947;28;20036;-58
2022/01/25 12:49:07;;;;;;;8.40;4.90;;;-0.10;64.80;;;;;;5068757;28;20573;-59
2022/01/25 12:51:36;;;;;;;6.95;5.22;;;-0.10;64.90;;;;;;5062644;28;20125;-58
2022/01/25 12:54:06;;;;;;;8.18;5.72;;;-0.10;65.00;;;;;;5061308;28;20104;-59
2022/01/25 12:56:35;;;;;;;8.80;4.97;;;-0.20;65.80;;;;;;5063528;28;21273;-59
2022/01/25 12:59:07;;;;;;;8.90;5.85;;;-0.20;65.20;;;;;;5055981;28;20031;-59
2022/01/25 13:01:34;;;;;;;7.28;5.22;;;-0.20;65.30;;;;;;5060266;28;20047;-58
2022/01/25 13:04:03;;;;;;;10.23;5.85;;;-0.20;65.30;;;;;;5065500;28;20056;-56
2022/01/25 13:06:32;;;;;;;10.50;6.38;;;-0.20;65.50;;;;;;5068803;28;20024;-57
2022/01/25 13:09:27;;;;;;;10.68;6.82;;;-0.10;65.50;;;;;;5061571;28;20309;-59
2022/01/25 13:17:17;;;;;;;11.27;6.55;;;0.10;64.00;;;;;;5058994;28;20048;-58
2022/01/25 13:19:57;;;;;;;13.77;11.15;;;0.10;63.90;;;;;;5062173;28;20046;-57
2022/01/25 13:22:28;;;;;;;11.85;6.63;;;0.10;63.70;;;;;;5065235;28;20060;-59
2022/01/25 13:25:00;;;;;;;9.10;5.70;;;0.00;63.60;;;;;;5061764;28;20016;-59
2022/01/25 13:27:34;;;;;;;11.65;6.55;;;-0.10;63.90;;;;;;5057614;28;20067;-57
2022/01/25 13:32:51;;;;;;;8.65;5.78;;;-0.20;64.10;;;;;;5066058;28;20044;-58
2022/01/25 13:35:41;;;;;;;13.10;10.48;;;-0.20;64.30;;;;;;5069157;28;20024;-57
2022/01/25 13:38:06;;;;;;;10.18;7.40;;;-0.20;64.10;;;;;;5054184;28;20030;-58
2022/01/25 13:40:46;;;;;;;11.60;7.05;;;-0.20;64.00;;;;;;5062145;28;20442;-57
2022/01/25 13:43:33;;;;;;;11.27;9.40;;;-0.30;64.00;;;;;;5066267;28;20095;-57
2022/01/25 13:46:06;;;;;;;14.63;10.90;;;-0.30;63.80;;;;;;5064108;28;20036;-59
2022/01/25 13:48:33;;;;;;;10.82;7.28;;;-0.30;63.60;;;;;;5065307;28;20072;-58
2022/01/25 13:51:05;;;;;;;12.60;10.77;;;-0.30;63.50;;;;;;5065296;28;20027;-58
2022/01/25 13:53:31;;;;;;;13.00;11.13;;;-0.30;63.60;;;;;;5055968;28;20032;-57
2022/01/25 13:55:59;;;;;;;12.65;7.35;;;-0.30;63.10;;;;;;5062415;28;20373;-59
2022/01/25 13:58:29;;;;;;;12.52;6.00;;;-0.40;63.00;;;;;;5067094;28;20079;-59
2022/01/25 14:00:56;;;;;;;11.48;6.85;;;-0.40;63.40;;;;;;5069558;28;20036;-58
2022/01/25 14:03:31;;;;;;;9.48;6.45;;;-0.50;63.40;;;;;;5070292;28;20660;-59
2022/01/25 14:05:57;;;;;;;20.88;15.88;;;-0.50;63.70;;;;;;5070846;28;20020;-59
2022/01/25 14:08:40;;;;;;;20.55;10.27;;;-0.50;63.50;;;;;;5067468;28;20089;-59
2022/01/25 14:11:52;;;;;;;12.20;7.35;;;-0.60;63.20;;;;;;5073743;28;20032;-59
2022/01/25 14:25:41;;;;;;;17.08;12.77;;;-0.80;62.60;;;;;;5066522;28;20115;-58
2022/01/25 14:28:25;;;;;;;13.27;8.40;;;-0.70;62.50;;;;;;5064607;28;20115;-59
2022/01/25 14:30:58;;;;;;;17.67;13.57;;;-0.80;62.60;;;;;;5049498;28;20115;-58
2022/01/25 14:33:27;;;;;;;16.20;14.00;;;-0.80;62.60;;;;;;5070189;28;20035;-58
2022/01/25 14:36:08;;;;;;;19.05;10.20;;;-0.80;62.60;;;;;;5073909;28;20055;-57
2022/01/25 14:38:35;;;;;;;19.63;10.07;;;-0.90;62.60;;;;;;5070234;28;20036;-56
2022/01/25 14:41:16;;;;;;;15.73;13.63;;;-0.90;62.90;;;;;;5068615;28;20067;-58
2022/01/25 14:43:49;;;;;;;16.67;9.27;;;-0.80;62.70;;;;;;5067433;28;20060;-57
2022/01/25 14:46:26;;;;;;;12.15;8.38;;;-0.90;62.70;;;;;;5076795;28;20028;-58
2022/01/25 14:49:21;;;;;;;19.17;14.55;;;-0.90;62.80;;;;;;5076934;28;20103;-57
2022/01/25 14:51:51;;;;;;;17.33;14.25;;;-0.90;62.60;;;;;;5058552;28;20544;-58
2022/01/25 14:54:29;;;;;;;14.38;9.07;;;-0.90;62.50;;;;;;5068673;28;20123;-59
2022/01/25 14:56:57;;;;;;;14.23;7.68;;;-1.00;62.60;;;;;;5066516;28;20036;-59
2022/01/25 14:59:26;;;;;;;15.77;13.25;;;-1.00;62.80;;;;;;5065265;28;20095;-58
2022/01/25 15:02:00;;;;;;;15.85;13.68;;;-1.00;62.90;;;;;;5070703;28;20120;-59
2022/01/25 15:04:27;;;;;;;17.63;8.90;;;-1.00;62.70;;;;;;5063958;28;20111;-58
2022/01/25 15:06:53;;;;;;;15.90;13.88;;;-1.10;62.70;;;;;;5065437;28;20523;-57
2022/01/25 15:09:19;;;;;;;15.65;9.75;;;-1.10;62.90;;;;;;5063362;28;20082;-58